createdAt,value
2019-03-24T00:01:42.181Z,44.30
2019-03-24T00:04:09.352Z,44.17
2019-03-24T00:06:36.504Z,44.03
2019-03-24T00:09:06.142Z,44.93
2019-03-24T00:11:33.649Z,44.63
2019-03-24T00:14:00.821Z,43.03
2019-03-24T00:16:27.941Z,41.47
2019-03-24T00:21:22.961Z,43.27
2019-03-24T00:23:50.140Z,43.20
2019-03-24T00:26:17.235Z,39.97
2019-03-24T00:28:44.761Z,41.03
2019-03-24T00:31:11.881Z,42.03
2019-03-24T00:33:39.063Z,42.23
2019-03-24T00:36:06.321Z,44.47
2019-03-24T00:38:33.561Z,44.33
2019-03-24T00:41:05.727Z,44.50
2019-03-24T00:43:32.941Z,44.97
2019-03-24T00:46:00.121Z,42.73
2019-03-24T00:48:27.341Z,44.63
2019-03-24T00:50:54.480Z,42.40
2019-03-24T00:53:21.681Z,44.67
2019-03-24T00:55:48.861Z,44.80
2019-03-24T00:58:16.081Z,45.77
2019-03-24T01:00:49.342Z,44.90
2019-03-24T01:03:16.981Z,43.37
2019-03-24T01:05:44.929Z,44.90
2019-03-24T01:08:12.382Z,45.67
2019-03-24T01:10:39.509Z,46.40
2019-03-24T01:13:06.921Z,44.37
2019-03-24T01:15:34.081Z,44.10
2019-03-24T01:18:01.363Z,43.43
2019-03-24T01:20:28.881Z,42.27
2019-03-24T01:22:56.112Z,41.73
2019-03-24T01:25:23.420Z,42.37
2019-03-24T01:27:51.081Z,41.17
2019-03-24T01:30:19.001Z,41.80
2019-03-24T01:32:46.200Z,41.67
2019-03-24T01:35:13.721Z,42.37
2019-03-24T01:37:40.901Z,40.47
2019-03-24T01:40:09.083Z,39.83
2019-03-24T01:42:36.327Z,42.63
2019-03-24T01:45:29.926Z,42.83
2019-03-24T01:47:57.085Z,43.13
2019-03-24T01:50:24.281Z,47.07
2019-03-24T01:52:51.441Z,44.60
2019-03-24T01:55:18.860Z,45.97
2019-03-24T01:57:46.023Z,47.97
2019-03-24T02:00:13.538Z,48.40
2019-03-24T02:02:40.681Z,42.77
2019-03-24T02:05:08.303Z,41.37
2019-03-24T02:07:35.481Z,41.80
2019-03-24T02:10:08.101Z,41.17
2019-03-24T02:12:35.265Z,40.43
2019-03-24T02:15:03.781Z,40.63
2019-03-24T02:17:30.926Z,38.50
2019-03-24T02:19:58.081Z,39.53
2019-03-24T02:22:25.185Z,39.87
2019-03-24T02:24:52.400Z,40.43
2019-03-24T02:27:19.509Z,41.10
2019-03-24T02:29:46.682Z,39.83
2019-03-24T02:32:14.273Z,39.03
2019-03-24T02:34:41.545Z,40.83
2019-03-24T02:37:08.662Z,39.87
2019-03-24T02:39:35.866Z,39.60
2019-03-24T02:42:03.036Z,41.13
2019-03-24T02:44:30.283Z,40.70
2019-03-24T02:46:57.434Z,41.17
2019-03-24T02:49:24.562Z,41.03
2019-03-24T02:51:51.762Z,39.40
2019-03-24T02:54:18.863Z,40.03
2019-03-24T02:56:46.144Z,38.73
2019-03-24T02:59:13.289Z,37.03
2019-03-24T03:01:40.422Z,37.90
2019-03-24T03:04:07.641Z,38.77
2019-03-24T03:06:34.823Z,37.30
2019-03-24T03:09:02.623Z,37.97
2019-03-24T03:11:29.802Z,39.57
2019-03-24T03:13:56.943Z,39.70
2019-03-24T03:16:37.602Z,39.80
2019-03-24T03:18:53.207Z,40.90
2019-03-24T03:21:20.809Z,39.63
2019-03-24T03:23:47.964Z,38.87
2019-03-24T03:26:15.121Z,39.30
2019-03-24T03:28:42.321Z,42.53
2019-03-24T03:31:09.751Z,40.57
2019-03-24T03:33:36.891Z,42.27
2019-03-24T03:36:04.213Z,40.00
2019-03-24T03:38:31.408Z,40.50
2019-03-24T03:40:58.611Z,42.00
2019-03-24T03:43:25.779Z,41.80
2019-03-24T03:45:53.102Z,42.00
2019-03-24T03:48:20.179Z,43.40
2019-03-24T03:50:47.346Z,45.13
2019-03-24T03:53:14.486Z,43.43
2019-03-24T03:55:41.601Z,42.23
2019-03-24T03:58:08.783Z,42.23
2019-03-24T04:00:36.619Z,44.13
2019-03-24T04:03:05.681Z,44.30
2019-03-24T04:05:32.864Z,43.17
2019-03-24T04:08:01.160Z,44.40
2019-03-24T04:10:28.311Z,42.30
2019-03-24T04:12:55.483Z,40.90
2019-03-24T04:15:22.703Z,42.83
2019-03-24T04:17:49.823Z,41.23
2019-03-24T04:20:16.922Z,40.53
2019-03-24T04:22:44.120Z,36.70
2019-03-24T04:25:11.177Z,37.47
2019-03-24T04:27:38.341Z,38.63
2019-03-24T04:30:06.447Z,38.73
2019-03-24T04:32:33.592Z,39.57
2019-03-24T04:35:00.984Z,41.03
2019-03-24T04:37:28.118Z,40.73
2019-03-24T04:39:55.483Z,41.87
2019-03-24T04:42:22.726Z,44.53
2019-03-24T04:44:49.851Z,44.73
2019-03-24T04:47:17.476Z,41.07
2019-03-24T04:49:44.588Z,42.00
2019-03-24T04:52:11.721Z,40.57
2019-03-24T04:54:38.895Z,39.63
2019-03-24T04:57:06.042Z,37.33
2019-03-24T04:59:33.202Z,35.93
2019-03-24T05:02:00.361Z,39.93
2019-03-24T05:04:27.663Z,40.80
2019-03-24T05:06:55.370Z,42.40
2019-03-24T05:09:24.244Z,41.57
2019-03-24T05:11:51.402Z,41.33
2019-03-24T05:14:18.581Z,44.97
2019-03-24T05:16:45.717Z,44.90
2019-03-24T05:19:12.922Z,46.63
2019-03-24T05:21:40.561Z,47.07
2019-03-24T05:24:07.802Z,46.40
2019-03-24T05:26:34.922Z,45.40
2019-03-24T05:29:02.201Z,44.77
2019-03-24T05:31:29.256Z,44.43
2019-03-24T05:33:56.382Z,46.13
2019-03-24T05:36:23.604Z,42.40
2019-03-24T05:38:50.729Z,42.30
2019-03-24T05:41:17.841Z,39.80
2019-03-24T05:43:45.041Z,43.93
2019-03-24T05:46:12.141Z,42.17
2019-03-24T05:48:39.261Z,38.90
2019-03-24T05:51:06.401Z,37.03
2019-03-24T05:53:33.580Z,34.17
2019-03-24T05:56:00.634Z,34.03
2019-03-24T05:58:27.782Z,33.03
2019-03-24T06:00:55.103Z,32.33
2019-03-24T06:03:22.293Z,29.80
2019-03-24T06:05:49.421Z,30.23
2019-03-24T06:08:16.522Z,30.07
2019-03-24T06:10:43.661Z,30.70
2019-03-24T06:13:10.821Z,29.77
2019-03-24T06:15:38.003Z,31.17
2019-03-24T06:18:05.079Z,31.73
2019-03-24T06:20:32.422Z,32.87
2019-03-24T06:22:59.531Z,32.93
2019-03-24T06:25:26.622Z,33.30
2019-03-24T06:27:53.715Z,33.03
2019-03-24T06:30:21.221Z,35.83
2019-03-24T06:32:48.302Z,34.63
2019-03-24T06:35:15.461Z,35.00
2019-03-24T06:37:42.638Z,35.67
2019-03-24T06:40:10.158Z,35.83
2019-03-24T06:42:37.333Z,35.13
2019-03-24T06:45:06.497Z,35.50
2019-03-24T06:47:33.728Z,35.33
2019-03-24T06:50:01.188Z,35.57
2019-03-24T06:52:28.369Z,36.03
2019-03-24T06:54:55.569Z,35.07
2019-03-24T06:57:22.728Z,35.83
2019-03-24T06:59:49.877Z,36.27
2019-03-24T07:02:17.057Z,35.13
2019-03-24T07:04:44.244Z,36.17
2019-03-24T07:07:11.643Z,37.03
2019-03-24T07:09:38.859Z,34.53
2019-03-24T07:12:06.167Z,35.83
2019-03-24T07:14:33.265Z,34.90
2019-03-24T07:17:00.472Z,36.53
2019-03-24T07:19:27.567Z,35.53
2019-03-24T07:21:54.762Z,34.73
2019-03-24T07:24:22.164Z,34.23
2019-03-24T07:26:49.395Z,35.43
2019-03-24T07:29:16.635Z,35.50
2019-03-24T07:31:43.785Z,34.60
2019-03-24T07:34:10.967Z,33.70
2019-03-24T07:36:38.426Z,35.23
2019-03-24T07:39:06.992Z,33.67
2019-03-24T07:41:34.407Z,33.60
2019-03-24T07:44:01.567Z,33.50
2019-03-24T07:46:28.820Z,32.27
2019-03-24T07:48:56.127Z,33.20
2019-03-24T07:51:23.324Z,34.30
2019-03-24T07:53:50.468Z,34.53
2019-03-24T07:56:17.646Z,34.70
2019-03-24T07:58:45.948Z,34.97
2019-03-24T08:01:13.349Z,33.73
2019-03-24T08:03:40.489Z,32.83
2019-03-24T08:06:07.609Z,33.83
2019-03-24T08:08:44.011Z,33.13
2019-03-24T08:11:04.492Z,32.53
2019-03-24T08:13:31.675Z,31.23
2019-03-24T08:15:58.852Z,30.67
2019-03-24T08:18:30.160Z,31.33
2019-03-24T08:20:55.168Z,28.07
2019-03-24T08:23:22.316Z,27.83
2019-03-24T08:25:49.405Z,27.67
2019-03-24T08:28:16.569Z,28.03
2019-03-24T08:30:43.984Z,27.13
2019-03-24T08:33:11.228Z,28.77
2019-03-24T08:35:38.376Z,28.70
2019-03-24T08:38:25.261Z,27.57
2019-03-24T08:40:52.462Z,28.00
2019-03-24T08:43:19.683Z,27.97
2019-03-24T08:45:46.822Z,27.97
2019-03-24T08:48:14.355Z,29.60
2019-03-24T08:50:41.541Z,29.57
2019-03-24T08:53:08.942Z,27.70
2019-03-24T08:55:36.162Z,29.07
2019-03-24T08:58:03.461Z,27.63
2019-03-24T09:00:31.160Z,28.57
2019-03-24T09:02:58.519Z,28.50
2019-03-24T09:05:25.681Z,28.67
2019-03-24T09:07:52.843Z,28.47
2019-03-24T09:10:20.082Z,28.27
2019-03-24T09:12:47.249Z,28.37
2019-03-24T09:15:14.664Z,27.30
2019-03-24T09:17:41.987Z,27.93
2019-03-24T09:20:15.520Z,26.47
2019-03-24T09:22:42.615Z,28.40
2019-03-24T09:25:10.173Z,28.33
2019-03-24T09:27:37.429Z,27.23
2019-03-24T09:30:12.101Z,29.07
2019-03-24T09:32:39.287Z,28.93
2019-03-24T09:35:06.712Z,27.23
2019-03-24T09:37:33.920Z,28.67
2019-03-24T09:40:01.241Z,27.80
2019-03-24T09:42:28.394Z,28.30
2019-03-24T09:44:56.530Z,30.00
2019-03-24T09:47:23.663Z,28.57
2019-03-24T09:49:51.545Z,30.03
2019-03-24T09:52:18.731Z,30.73
2019-03-24T09:54:45.932Z,30.13
2019-03-24T09:57:13.408Z,27.60
2019-03-24T09:59:40.585Z,30.20
2019-03-24T10:02:07.722Z,28.53
2019-03-24T10:04:34.880Z,29.40
2019-03-24T10:07:01.958Z,30.07
2019-03-24T10:09:29.249Z,28.93
2019-03-24T10:11:56.423Z,30.33
2019-03-24T10:14:23.604Z,30.53
2019-03-24T10:16:51.311Z,29.70
2019-03-24T10:19:18.510Z,31.17
2019-03-24T10:21:45.677Z,31.43
2019-03-24T10:24:12.838Z,30.60
2019-03-24T10:26:40.018Z,30.87
2019-03-24T10:29:07.477Z,32.20
2019-03-24T10:31:34.650Z,32.47
2019-03-24T10:34:01.801Z,30.47
2019-03-24T10:36:29.002Z,32.20
2019-03-24T10:38:56.647Z,32.93
2019-03-24T10:41:23.809Z,32.60
2019-03-24T10:43:50.974Z,31.93
2019-03-24T10:46:18.117Z,31.87
2019-03-24T10:48:45.295Z,32.43
2019-03-24T10:51:12.438Z,33.00
2019-03-24T10:53:39.639Z,32.57
2019-03-24T10:56:07.239Z,33.50
2019-03-24T10:58:34.852Z,33.03
2019-03-24T11:01:02.014Z,31.77
2019-03-24T11:03:29.197Z,32.60
2019-03-24T11:05:56.380Z,32.70
2019-03-24T11:08:23.519Z,34.43
2019-03-24T11:10:51.239Z,32.93
2019-03-24T11:13:18.395Z,33.57
2019-03-24T11:15:45.541Z,33.80
2019-03-24T11:18:12.721Z,32.37
2019-03-24T11:20:39.860Z,32.20
2019-03-24T11:23:06.945Z,32.77
2019-03-24T11:25:34.102Z,33.10
2019-03-24T11:28:01.187Z,34.63
2019-03-24T11:30:29.063Z,32.87
2019-03-24T11:32:56.243Z,32.83
2019-03-24T11:35:23.404Z,32.77
2019-03-24T11:37:50.622Z,34.10
2019-03-24T11:40:17.763Z,32.40
2019-03-24T11:42:44.846Z,32.13
2019-03-24T11:45:12.769Z,36.80
2019-03-24T11:47:40.123Z,35.37
2019-03-24T11:50:09.244Z,36.23
2019-03-24T11:52:36.622Z,34.57
2019-03-24T11:55:08.303Z,35.40
2019-03-24T11:57:36.130Z,119.87
2019-03-24T12:00:08.611Z,44.07
2019-03-24T12:02:35.812Z,37.17
2019-03-24T12:05:05.523Z,36.57
2019-03-24T12:07:32.688Z,40.30
2019-03-24T12:09:59.878Z,34.80
2019-03-24T12:12:27.084Z,79.83
2019-03-24T12:14:54.343Z,74.47
2019-03-24T12:17:21.564Z,46.00
2019-03-24T12:19:56.429Z,33.97
2019-03-24T12:24:45.423Z,34.03
2019-03-24T12:27:12.649Z,34.57
2019-03-24T12:29:40.130Z,33.40
2019-03-24T12:32:07.623Z,34.50
2019-03-24T12:34:34.943Z,36.00
2019-03-24T12:37:02.383Z,35.27
2019-03-24T12:39:29.781Z,35.30
2019-03-24T12:41:57.142Z,37.43
2019-03-24T12:44:24.283Z,35.10
2019-03-24T12:46:51.445Z,34.80
2019-03-24T12:49:18.623Z,39.70
2019-03-24T12:51:45.766Z,38.53
2019-03-24T12:54:13.006Z,37.83
2019-03-24T12:56:40.121Z,37.70
2019-03-24T12:59:07.320Z,37.90
2019-03-24T13:01:34.823Z,37.73
2019-03-24T13:04:02.102Z,37.33
2019-03-24T13:06:29.263Z,37.73
2019-03-24T13:08:56.606Z,36.57
2019-03-24T13:11:23.765Z,36.70
2019-03-24T13:13:50.967Z,38.17
2019-03-24T13:16:18.123Z,36.77
2019-03-24T13:18:45.354Z,37.90
2019-03-24T13:21:12.489Z,38.17
2019-03-24T13:23:39.685Z,37.43
2019-03-24T13:26:07.384Z,38.37
2019-03-24T13:28:34.571Z,39.20
2019-03-24T13:31:01.985Z,37.27
2019-03-24T13:33:29.224Z,36.50
2019-03-24T13:36:01.349Z,34.73
2019-03-24T13:38:28.568Z,36.47
2019-03-24T13:40:55.747Z,37.13
2019-03-24T13:43:22.968Z,34.50
2019-03-24T13:45:50.075Z,34.30
2019-03-24T13:48:17.268Z,29.93
2019-03-24T13:50:44.319Z,30.93
2019-03-24T13:53:11.969Z,32.43
2019-03-24T13:55:39.113Z,33.00
2019-03-24T13:58:06.766Z,30.23
2019-03-24T14:00:34.023Z,30.97
2019-03-24T14:03:01.110Z,32.33
2019-03-24T14:05:28.259Z,31.07
2019-03-24T14:07:55.422Z,30.97
2019-03-24T14:10:22.642Z,31.63
2019-03-24T14:12:49.763Z,31.43
2019-03-24T14:15:16.994Z,33.50
2019-03-24T14:17:44.147Z,32.70
2019-03-24T14:20:11.906Z,31.93
2019-03-24T14:22:39.245Z,32.53
2019-03-24T14:25:06.967Z,31.80
2019-03-24T14:27:34.067Z,30.17
2019-03-24T14:30:01.215Z,30.70
2019-03-24T14:32:28.933Z,30.77
2019-03-24T14:34:56.367Z,31.67
2019-03-24T14:37:23.487Z,30.67
2019-03-24T14:39:50.611Z,27.03
2019-03-24T14:42:17.871Z,26.50
2019-03-24T14:44:47.069Z,25.67
2019-03-24T14:47:14.359Z,25.70
2019-03-24T14:49:41.622Z,28.10
2019-03-24T14:52:08.682Z,26.57
2019-03-24T14:54:35.855Z,26.37
2019-03-24T14:57:03.269Z,27.40
2019-03-24T14:59:30.737Z,24.60
2019-03-24T15:01:57.965Z,25.13
2019-03-24T15:04:25.046Z,24.90
2019-03-24T15:06:52.242Z,26.80
2019-03-24T15:09:19.406Z,26.53
2019-03-24T15:11:46.625Z,25.37
2019-03-24T15:14:13.775Z,26.07
2019-03-24T15:16:40.960Z,24.93
2019-03-24T15:19:08.100Z,24.90
2019-03-24T15:21:35.335Z,24.60
2019-03-24T15:24:02.426Z,25.37
2019-03-24T15:26:29.652Z,24.33
2019-03-24T15:28:56.789Z,24.03
2019-03-24T15:31:23.990Z,25.50
2019-03-24T15:33:51.141Z,25.57
2019-03-24T15:36:18.597Z,25.53
2019-03-24T15:38:46.077Z,26.07
2019-03-24T15:41:13.986Z,27.97
2019-03-24T15:43:41.261Z,27.60
2019-03-24T15:46:08.528Z,27.83
2019-03-24T15:48:35.749Z,27.77
2019-03-24T15:51:02.948Z,27.50
2019-03-24T15:53:30.069Z,29.20
2019-03-24T15:55:57.270Z,28.63
2019-03-24T15:58:24.378Z,29.50
2019-03-24T16:00:52.080Z,27.47
2019-03-24T16:03:19.359Z,27.63
2019-03-24T16:05:47.622Z,27.30
2019-03-24T16:08:14.917Z,28.77
2019-03-24T16:10:42.036Z,28.90
2019-03-24T16:13:09.398Z,29.60
2019-03-24T16:15:36.599Z,30.27
2019-03-24T16:18:04.240Z,33.10
2019-03-24T16:20:31.354Z,31.43
2019-03-24T16:22:58.538Z,30.27
2019-03-24T16:25:25.683Z,31.13
2019-03-24T16:27:52.854Z,31.27
2019-03-24T16:30:19.969Z,31.43
2019-03-24T16:32:47.167Z,31.57
2019-03-24T16:35:14.328Z,30.60
2019-03-24T16:37:41.512Z,32.40
2019-03-24T16:40:09.260Z,29.90
2019-03-24T16:42:36.716Z,30.43
2019-03-24T16:45:05.560Z,28.67
2019-03-24T16:47:32.802Z,30.80
2019-03-24T16:50:00.022Z,31.03
2019-03-24T16:52:27.272Z,30.17
2019-03-24T16:54:54.423Z,30.53
2019-03-24T16:57:21.684Z,30.17
2019-03-24T16:59:48.919Z,31.47
2019-03-24T17:02:16.296Z,30.40
2019-03-24T17:04:43.722Z,30.60
2019-03-24T17:07:11.237Z,31.90
2019-03-24T17:09:38.479Z,30.60
2019-03-24T17:12:05.762Z,32.70
2019-03-24T17:14:33.185Z,32.37
2019-03-24T17:17:00.357Z,33.53
2019-03-24T17:21:55.163Z,33.33
2019-03-24T17:24:22.387Z,33.67
2019-03-24T17:26:49.561Z,34.00
2019-03-24T17:29:16.795Z,34.03
2019-03-24T17:31:43.878Z,35.67
2019-03-24T17:34:11.058Z,35.37
2019-03-24T17:36:38.306Z,35.47
2019-03-24T17:39:06.897Z,33.50
2019-03-24T17:41:34.118Z,33.17
2019-03-24T17:44:03.391Z,34.53
2019-03-24T17:49:00.260Z,34.03
2019-03-24T17:51:27.418Z,34.40
2019-03-24T17:53:54.658Z,36.07
2019-03-24T17:56:21.836Z,36.13
2019-03-24T17:58:48.999Z,34.63
2019-03-24T18:01:16.219Z,34.40
2019-03-24T18:03:43.438Z,35.73
2019-03-24T18:06:10.564Z,35.07
2019-03-24T18:08:37.725Z,35.57
2019-03-24T18:11:05.023Z,35.27
2019-03-24T18:13:32.163Z,38.77
2019-03-24T18:15:59.419Z,35.67
2019-03-24T18:18:26.572Z,34.43
2019-03-24T18:20:54.173Z,33.17
2019-03-24T18:23:21.315Z,34.33
2019-03-24T18:25:48.577Z,34.27
2019-03-24T18:28:15.915Z,33.97
2019-03-24T18:30:43.098Z,37.67
2019-03-24T18:33:10.373Z,38.07
2019-03-24T18:35:37.593Z,38.93
2019-03-24T18:38:05.133Z,38.97
2019-03-24T18:40:32.311Z,38.60
2019-03-24T18:42:59.490Z,38.70
2019-03-24T18:45:27.894Z,38.40
2019-03-24T18:47:55.034Z,38.80
2019-03-24T18:50:22.283Z,38.97
2019-03-24T18:52:50.240Z,38.47
2019-03-24T18:55:17.928Z,42.33
2019-03-24T18:57:45.087Z,39.37
2019-03-24T19:00:13.938Z,41.67
2019-03-24T19:02:41.086Z,39.87
2019-03-24T19:05:08.506Z,40.50
2019-03-24T19:07:35.712Z,41.93
2019-03-24T19:10:09.206Z,40.03
2019-03-24T19:12:36.809Z,41.27
2019-03-24T19:15:06.466Z,41.50
2019-03-24T19:17:33.907Z,41.73
2019-03-24T19:20:01.329Z,42.27
2019-03-24T19:22:33.475Z,40.50
2019-03-24T19:24:57.927Z,42.43
2019-03-24T19:27:25.145Z,43.27
2019-03-24T19:29:52.283Z,42.43
2019-03-24T19:32:19.587Z,43.43
2019-03-24T19:34:47.206Z,43.37
2019-03-24T19:37:14.545Z,43.17
2019-03-24T19:39:41.709Z,41.87
2019-03-24T19:42:08.866Z,45.43
2019-03-24T19:44:36.052Z,43.50
2019-03-24T19:47:03.426Z,43.23
2019-03-24T19:49:30.622Z,43.60
2019-03-24T19:51:57.788Z,44.93
2019-03-24T19:54:24.946Z,45.30
2019-03-24T19:56:52.163Z,45.37
2019-03-24T19:59:19.343Z,47.07
2019-03-24T20:01:46.523Z,47.23
2019-03-24T20:04:13.983Z,46.97
2019-03-24T20:06:41.137Z,46.10
2019-03-24T20:09:08.496Z,45.77
2019-03-24T20:11:35.778Z,46.30
2019-03-24T20:14:03.059Z,48.47
2019-03-24T20:16:30.176Z,48.63
2019-03-24T20:18:57.336Z,49.47
2019-03-24T20:21:24.756Z,49.23
2019-03-24T20:23:51.926Z,49.00
2019-03-24T20:26:19.425Z,48.40
2019-03-24T20:28:46.697Z,49.57
2019-03-24T20:31:13.843Z,49.70
2019-03-24T20:33:41.033Z,48.93
2019-03-24T20:36:08.199Z,47.30
2019-03-24T20:38:35.422Z,48.17
2019-03-24T20:41:02.587Z,47.77
2019-03-24T20:43:30.406Z,47.00
2019-03-24T20:45:57.630Z,46.93
2019-03-24T20:48:24.828Z,45.23
2019-03-24T20:50:52.392Z,48.13
2019-03-24T20:53:20.061Z,47.47
2019-03-24T20:55:47.178Z,46.50
2019-03-24T20:58:14.339Z,46.73
2019-03-24T21:00:41.644Z,46.47
2019-03-24T21:03:08.952Z,47.20
2019-03-24T21:05:36.212Z,47.93
2019-03-24T21:08:03.712Z,47.07
2019-03-24T21:10:30.901Z,47.97
2019-03-24T21:12:58.094Z,47.23
2019-03-24T21:15:25.251Z,47.20
2019-03-24T21:17:52.431Z,48.27
2019-03-24T21:20:19.531Z,48.07
2019-03-24T21:22:46.692Z,47.87
2019-03-24T21:25:13.872Z,46.50
2019-03-24T21:27:41.017Z,46.57
2019-03-24T21:30:09.852Z,47.07
2019-03-24T21:32:37.321Z,46.20
2019-03-24T21:35:06.659Z,48.60
2019-03-24T21:37:33.840Z,48.97
2019-03-24T21:40:01.004Z,49.57
2019-03-24T21:42:28.212Z,49.03
2019-03-24T21:44:55.412Z,50.07
2019-03-24T21:47:22.572Z,49.37
2019-03-24T21:49:49.753Z,47.47
2019-03-24T21:52:16.893Z,50.03
2019-03-24T21:54:44.091Z,50.73
2019-03-24T21:57:11.252Z,51.23
2019-03-24T21:59:38.652Z,50.63
2019-03-24T22:02:06.008Z,51.23
2019-03-24T22:04:33.312Z,52.50
2019-03-24T22:07:00.473Z,53.53
2019-03-24T22:09:27.652Z,52.60
2019-03-24T22:11:54.839Z,52.57
2019-03-24T22:14:22.233Z,53.40
2019-03-24T22:16:49.392Z,50.90
2019-03-24T22:19:16.615Z,51.80
2019-03-24T22:21:43.833Z,50.03
2019-03-24T22:24:11.066Z,52.43
2019-03-24T22:26:38.234Z,53.97
2019-03-24T22:29:05.492Z,54.30
2019-03-24T22:31:32.633Z,53.63
2019-03-24T22:33:59.773Z,52.87
2019-03-24T22:36:27.029Z,54.13
2019-03-24T22:38:54.232Z,54.20
2019-03-24T22:41:21.433Z,54.47
2019-03-24T22:43:48.573Z,54.27
2019-03-24T22:46:15.812Z,55.60
2019-03-24T22:48:42.962Z,53.63
2019-03-24T22:51:10.134Z,55.33
2019-03-24T22:53:37.299Z,57.47
2019-03-24T22:56:04.492Z,57.47
2019-03-24T22:58:31.653Z,55.90
2019-03-24T23:00:59.374Z,57.10
2019-03-24T23:03:26.714Z,55.80
2019-03-24T23:05:54.648Z,55.83
2019-03-24T23:08:21.833Z,57.43
2019-03-24T23:10:49.073Z,55.70
2019-03-24T23:13:16.233Z,57.90
2019-03-24T23:15:43.413Z,58.03
2019-03-24T23:18:11.035Z,58.43
2019-03-24T23:20:38.180Z,55.53
2019-03-24T23:23:05.513Z,55.77
2019-03-24T23:25:33.313Z,58.03
2019-03-24T23:28:00.473Z,57.03
2019-03-24T23:30:27.632Z,57.67
2019-03-24T23:32:54.854Z,57.03
2019-03-24T23:35:21.992Z,58.17
2019-03-24T23:37:49.672Z,57.63
2019-03-24T23:40:16.792Z,56.33
2019-03-24T23:42:44.012Z,55.07
2019-03-24T23:45:11.672Z,54.17
2019-03-24T23:47:38.955Z,48.70
2019-03-24T23:50:06.495Z,48.53
2019-03-24T23:52:33.695Z,48.27
2019-03-24T23:55:00.792Z,50.53
2019-03-24T23:57:27.998Z,48.40
2019-03-24T23:59:55.172Z,48.40
